createdAt,value
2018-03-29T00:02:22.957Z,99743.95
2018-03-29T00:04:49.207Z,99740.03
2018-03-29T00:07:16.166Z,99743.59
2018-03-29T00:09:42.339Z,99747.13
2018-03-29T00:12:08.514Z,99744.97
2018-03-29T00:14:34.697Z,99750.70
2018-03-29T00:17:01.185Z,99747.64
2018-03-29T00:19:27.381Z,99752.38
2018-03-29T00:21:53.613Z,99741.96
2018-03-29T00:24:19.791Z,99752.06
2018-03-29T00:26:45.968Z,99744.56
2018-03-29T00:29:12.267Z,99747.58
2018-03-29T00:31:38.758Z,99743.26
2018-03-29T00:34:04.963Z,99749.05
2018-03-29T00:36:31.169Z,99751.30
2018-03-29T00:38:57.373Z,99751.68
2018-03-29T00:41:23.533Z,99746.28
2018-03-29T00:43:49.782Z,99747.15
2018-03-29T00:46:16.025Z,99752.27
2018-03-29T00:48:43.135Z,99748.33
2018-03-29T00:51:09.720Z,99746.68
2018-03-29T00:53:44.103Z,99751.87
2018-03-29T00:56:10.302Z,99755.91
2018-03-29T00:58:36.518Z,99753.47
2018-03-29T01:01:02.752Z,99757.17
2018-03-29T01:03:28.907Z,99759.73
2018-03-29T01:05:55.133Z,99754.54
2018-03-29T01:08:21.356Z,99751.65
2018-03-29T01:10:47.523Z,99755.91
2018-03-29T01:13:13.948Z,99758.98
2018-03-29T01:15:40.155Z,99761.20
2018-03-29T01:18:06.411Z,99760.83
2018-03-29T01:20:32.652Z,99763.41
2018-03-29T01:22:58.913Z,99762.25
2018-03-29T01:25:25.083Z,99758.81
2018-03-29T01:27:51.295Z,99762.64
2018-03-29T01:30:17.475Z,99766.63
2018-03-29T01:32:43.746Z,99769.26
2018-03-29T01:35:09.952Z,99772.80
2018-03-29T01:37:36.175Z,99776.36
2018-03-29T01:40:02.937Z,99770.20
2018-03-29T01:42:29.407Z,99776.81
2018-03-29T01:44:55.614Z,99779.00
2018-03-29T01:47:21.824Z,99782.51
2018-03-29T01:49:48.119Z,99787.32
2018-03-29T01:52:14.370Z,99790.88
2018-03-29T01:54:40.587Z,99792.18
2018-03-29T01:57:06.801Z,99794.81
2018-03-29T01:59:32.972Z,99796.61
2018-03-29T02:01:59.176Z,99797.44
2018-03-29T02:04:25.385Z,99800.17
2018-03-29T02:06:51.608Z,99800.66
2018-03-29T02:09:17.806Z,99802.45
2018-03-29T02:11:43.984Z,99797.11
2018-03-29T02:14:10.479Z,99799.34
2018-03-29T02:16:37.014Z,99813.84
2018-03-29T02:19:03.231Z,99816.02
2018-03-29T02:21:29.427Z,99814.16
2018-03-29T02:23:55.636Z,99816.30
2018-03-29T02:26:21.822Z,99822.86
2018-03-29T02:28:48.041Z,99821.70
2018-03-29T02:31:14.243Z,99821.26
2018-03-29T02:33:40.516Z,99826.89
2018-03-29T02:36:06.731Z,99821.22
2018-03-29T02:38:33.276Z,99824.66
2018-03-29T02:40:59.448Z,99829.17
2018-03-29T02:43:26.108Z,99826.55
2018-03-29T02:45:52.295Z,99825.70
2018-03-29T02:48:18.544Z,99836.61
2018-03-29T02:50:44.740Z,99838.43
2018-03-29T02:53:11.256Z,99837.48
2018-03-29T02:55:37.575Z,99839.19
2018-03-29T02:58:03.738Z,99846.28
2018-03-29T03:00:29.912Z,99847.17
2018-03-29T03:02:56.372Z,99847.66
2018-03-29T03:05:22.529Z,99850.70
2018-03-29T03:07:48.732Z,99856.45
2018-03-29T03:10:14.969Z,99861.31
2018-03-29T03:12:41.168Z,99864.37
2018-03-29T03:15:07.325Z,99864.70
2018-03-29T03:17:33.571Z,99869.46
2018-03-29T03:19:59.747Z,99876.02
2018-03-29T03:22:25.951Z,99874.16
2018-03-29T03:24:52.158Z,99873.28
2018-03-29T03:27:18.392Z,99881.06
2018-03-29T03:29:44.567Z,99884.98
2018-03-29T03:32:10.736Z,99889.42
2018-03-29T03:34:37.234Z,99888.59
2018-03-29T03:37:03.400Z,99893.08
2018-03-29T03:39:29.780Z,99895.75
2018-03-29T03:41:56.334Z,99888.77
2018-03-29T03:44:22.548Z,99898.77
2018-03-29T03:46:49.104Z,99900.95
2018-03-29T03:49:15.302Z,99901.00
2018-03-29T03:51:41.503Z,99908.87
2018-03-29T03:54:07.763Z,99909.84
2018-03-29T03:56:33.954Z,99913.78
2018-03-29T03:59:00.449Z,99911.98
2018-03-29T04:01:26.988Z,99921.66
2018-03-29T04:03:53.141Z,99928.30
2018-03-29T04:06:19.298Z,99927.97
2018-03-29T04:08:45.910Z,99930.61
2018-03-29T04:11:12.070Z,99929.67
2018-03-29T04:13:38.247Z,99934.97
2018-03-29T04:16:04.450Z,99941.53
2018-03-29T04:18:30.645Z,99939.78
2018-03-29T04:20:56.819Z,99942.84
2018-03-29T04:23:23.336Z,99941.53
2018-03-29T04:25:49.563Z,99944.59
2018-03-29T04:28:15.822Z,99953.43
2018-03-29T04:30:42.043Z,99957.42
2018-03-29T04:33:08.223Z,99959.45
2018-03-29T04:35:34.449Z,99964.55
2018-03-29T04:38:00.631Z,99963.68
2018-03-29T04:40:26.836Z,99970.77
2018-03-29T04:42:53.366Z,99978.54
2018-03-29T04:45:19.903Z,99975.03
2018-03-29T04:47:46.066Z,99975.92
2018-03-29T04:50:12.313Z,99979.52
2018-03-29T04:52:38.554Z,99986.13
2018-03-29T04:55:04.803Z,99988.85
2018-03-29T04:57:31.012Z,99995.50
2018-03-29T04:59:57.176Z,99997.30
2018-03-29T05:02:23.387Z,100002.17
2018-03-29T05:04:49.929Z,100000.99
2018-03-29T05:07:16.149Z,100014.98
2018-03-29T05:09:42.359Z,100010.57
2018-03-29T05:12:08.817Z,100018.97
2018-03-29T05:14:35.059Z,100019.27
2018-03-29T05:17:01.584Z,100021.45
2018-03-29T05:19:28.000Z,100027.96
2018-03-29T05:21:54.239Z,100032.70
2018-03-29T05:24:20.675Z,100035.19
2018-03-29T05:26:48.807Z,100040.33
2018-03-29T05:29:15.053Z,100043.39
2018-03-29T05:31:41.319Z,100045.23
2018-03-29T05:34:07.491Z,100041.25
2018-03-29T05:36:33.669Z,100047.38
2018-03-29T05:38:59.912Z,100045.97
2018-03-29T05:41:26.088Z,100051.45
2018-03-29T05:43:52.287Z,100059.67
2018-03-29T05:46:18.437Z,100062.28
2018-03-29T05:48:44.633Z,100062.92
2018-03-29T05:51:10.837Z,100065.27
2018-03-29T05:53:37.194Z,100079.94
2018-03-29T05:56:03.636Z,100074.66
2018-03-29T05:58:29.902Z,100077.32
2018-03-29T06:00:56.374Z,100081.31
2018-03-29T06:03:22.526Z,100080.44
2018-03-29T06:05:48.714Z,100083.05
2018-03-29T06:08:14.891Z,100079.99
2018-03-29T06:10:41.098Z,100087.92
2018-03-29T06:13:07.285Z,100087.05
2018-03-29T06:15:33.556Z,100095.36
2018-03-29T06:17:59.763Z,100093.89
2018-03-29T06:20:25.929Z,100104.39
2018-03-29T06:22:52.143Z,100104.28
2018-03-29T06:25:18.588Z,100105.88
2018-03-29T06:27:45.164Z,100098.90
2018-03-29T06:30:11.419Z,100118.44
2018-03-29T06:32:37.882Z,100119.69
2018-03-29T06:35:04.069Z,100125.00
2018-03-29T06:37:30.244Z,100119.73
2018-03-29T06:39:56.457Z,100131.84
2018-03-29T06:42:22.954Z,100126.20
2018-03-29T06:44:49.192Z,100136.84
2018-03-29T06:47:15.380Z,100131.87
2018-03-29T06:49:41.549Z,100138.00
2018-03-29T06:52:07.774Z,100142.38
2018-03-29T06:54:34.261Z,100142.33
2018-03-29T06:57:00.678Z,100147.14
2018-03-29T06:59:26.879Z,100152.30
2018-03-29T07:01:53.088Z,100157.06
2018-03-29T07:04:19.352Z,100160.84
2018-03-29T07:06:45.617Z,100162.94
2018-03-29T07:09:11.826Z,100161.80
2018-03-29T07:11:38.036Z,100169.05
2018-03-29T07:14:04.206Z,100174.25
2018-03-29T07:16:30.424Z,100177.08
2018-03-29T07:18:56.645Z,100179.47
2018-03-29T07:21:22.949Z,100182.29
2018-03-29T07:23:49.122Z,100188.03
2018-03-29T07:26:15.345Z,100182.30
2018-03-29T07:28:42.219Z,100192.02
2018-03-29T07:31:08.399Z,100194.00
2018-03-29T07:33:34.588Z,100195.40
2018-03-29T07:36:00.803Z,100197.33
2018-03-29T07:38:27.389Z,100200.84
2018-03-29T07:40:53.857Z,100199.95
2018-03-29T07:43:20.078Z,100203.74
2018-03-29T07:45:46.355Z,100205.34
2018-03-29T07:48:12.731Z,100201.35
2018-03-29T07:50:38.953Z,100205.45
2018-03-29T07:53:05.128Z,100210.59
2018-03-29T07:55:31.339Z,100218.20
2018-03-29T07:57:57.622Z,100210.70
2018-03-29T08:00:23.887Z,100206.77
2018-03-29T08:02:50.060Z,100219.48
2018-03-29T08:05:16.548Z,100226.63
2018-03-29T08:07:43.191Z,100225.11
2018-03-29T08:10:09.623Z,100221.31
2018-03-29T08:12:35.808Z,100221.45
2018-03-29T08:15:02.485Z,100225.26
2018-03-29T08:17:28.659Z,100233.42
2018-03-29T08:19:54.831Z,100234.69
2018-03-29T08:22:21.043Z,100232.10
2018-03-29T08:24:47.252Z,100237.70
2018-03-29T08:27:13.449Z,100246.83
2018-03-29T08:29:39.913Z,100249.63
2018-03-29T08:32:06.448Z,100246.17
2018-03-29T08:34:32.687Z,100251.42
2018-03-29T08:36:58.916Z,100253.17
2018-03-29T08:39:25.138Z,100253.27
2018-03-29T08:41:51.401Z,100259.41
2018-03-29T08:44:17.578Z,100263.66
2018-03-29T08:46:44.062Z,100269.58
2018-03-29T08:49:10.357Z,100265.17
2018-03-29T08:51:36.567Z,100260.55
2018-03-29T08:54:02.793Z,100263.06
2018-03-29T08:56:29.009Z,100269.92
2018-03-29T08:58:55.299Z,100275.46
2018-03-29T09:01:21.517Z,100273.91
2018-03-29T09:03:47.707Z,100274.12
2018-03-29T09:06:13.923Z,100277.48
2018-03-29T09:08:40.423Z,100280.54
2018-03-29T09:11:06.659Z,100275.23
2018-03-29T09:13:32.829Z,100286.13
2018-03-29T09:15:58.998Z,100279.89
2018-03-29T09:18:25.271Z,100287.91
2018-03-29T09:20:51.456Z,100291.31
2018-03-29T09:23:17.895Z,100289.67
2018-03-29T09:25:44.097Z,100294.31
2018-03-29T09:28:10.660Z,100299.28
2018-03-29T09:30:36.889Z,100300.74
2018-03-29T09:33:03.178Z,100304.25
2018-03-29T09:35:29.420Z,100316.77
2018-03-29T09:37:55.594Z,100313.14
2018-03-29T09:40:21.900Z,100314.38
2018-03-29T09:42:48.117Z,100315.67
2018-03-29T09:45:14.337Z,100320.58
2018-03-29T09:47:40.571Z,100329.63
2018-03-29T09:50:06.763Z,100327.22
2018-03-29T09:52:32.973Z,100329.02
2018-03-29T09:54:59.888Z,100321.20
2018-03-29T09:57:26.061Z,100321.29
2018-03-29T09:59:52.298Z,100323.48
2018-03-29T10:02:18.537Z,100326.45
2018-03-29T10:04:51.162Z,100330.84
2018-03-29T10:07:23.365Z,100337.31
2018-03-29T10:09:49.526Z,100337.70
2018-03-29T10:12:15.782Z,100340.38
2018-03-29T10:14:42.023Z,100343.49
2018-03-29T10:17:08.533Z,100347.38
2018-03-29T10:19:34.734Z,100352.27
2018-03-29T10:22:01.003Z,100358.11
2018-03-29T10:24:27.237Z,100360.73
2018-03-29T10:26:53.487Z,100366.39
2018-03-29T10:29:19.676Z,100354.08
2018-03-29T10:31:46.354Z,100357.63
2018-03-29T10:34:12.532Z,100369.17
2018-03-29T10:36:38.752Z,100367.59
2018-03-29T10:39:05.032Z,100378.78
2018-03-29T10:41:31.706Z,100375.39
2018-03-29T10:43:57.886Z,100382.34
2018-03-29T10:46:24.395Z,100385.86
2018-03-29T10:48:50.661Z,100390.03
2018-03-29T10:51:17.166Z,100390.67
2018-03-29T10:53:43.382Z,100400.36
2018-03-29T10:56:09.663Z,100400.86
2018-03-29T10:58:36.113Z,100400.84
2018-03-29T11:01:02.312Z,100402.17
2018-03-29T11:03:28.558Z,100402.17
2018-03-29T11:05:54.788Z,100403.67
2018-03-29T11:08:21.053Z,100411.89
2018-03-29T11:10:47.336Z,100410.53
2018-03-29T11:13:13.677Z,100414.44
2018-03-29T11:15:40.150Z,100423.00
2018-03-29T11:18:06.346Z,100424.98
2018-03-29T11:20:32.785Z,100425.12
2018-03-29T11:22:58.945Z,100420.87
2018-03-29T11:25:25.143Z,100428.16
2018-03-29T11:27:51.321Z,100426.69
2018-03-29T11:30:20.413Z,100428.83
2018-03-29T11:32:46.772Z,100441.72
2018-03-29T11:35:13.268Z,100434.81
2018-03-29T11:37:39.512Z,100438.29
2018-03-29T11:40:05.683Z,100443.02
2018-03-29T11:42:32.280Z,100439.22
2018-03-29T11:44:58.458Z,100437.08
2018-03-29T11:47:24.943Z,100439.46
2018-03-29T11:49:51.229Z,100439.18
2018-03-29T11:52:17.460Z,100444.97
2018-03-29T11:54:44.011Z,100442.73
2018-03-29T11:57:10.558Z,100439.42
2018-03-29T11:59:36.775Z,100438.68
2018-03-29T12:02:02.975Z,100446.77
2018-03-29T12:04:29.430Z,100444.96
2018-03-29T12:06:55.622Z,100453.49
2018-03-29T12:09:21.857Z,100455.05
2018-03-29T12:11:48.047Z,100458.22
2018-03-29T12:14:14.466Z,100451.16
2018-03-29T12:16:40.747Z,100453.39
2018-03-29T12:19:06.965Z,100451.06
2018-03-29T12:21:33.155Z,100457.48
2018-03-29T12:23:59.666Z,100455.09
2018-03-29T12:26:26.104Z,100459.62
2018-03-29T12:28:52.378Z,100459.71
2018-03-29T12:31:18.696Z,100458.19
2018-03-29T12:33:45.089Z,100464.06
2018-03-29T12:36:11.267Z,100457.92
2018-03-29T12:38:37.759Z,100462.38
2018-03-29T12:41:03.972Z,100464.99
2018-03-29T12:43:30.416Z,100467.30
2018-03-29T12:45:56.643Z,100471.99
2018-03-29T12:48:22.814Z,100470.09
2018-03-29T12:50:48.998Z,100470.19
2018-03-29T12:53:15.242Z,100470.68
2018-03-29T12:55:41.496Z,100470.39
2018-03-29T12:58:10.861Z,100471.51
2018-03-29T13:00:37.072Z,100474.81
2018-03-29T13:03:03.284Z,100474.62
2018-03-29T13:05:29.466Z,100474.18
2018-03-29T13:07:55.695Z,100479.84
2018-03-29T13:10:21.982Z,100474.91
2018-03-29T13:12:48.426Z,100471.75
2018-03-29T13:15:14.607Z,100475.11
2018-03-29T13:17:41.096Z,100471.41
2018-03-29T13:20:07.570Z,100472.58
2018-03-29T13:22:34.173Z,100473.55
2018-03-29T13:25:00.383Z,100472.48
2018-03-29T13:27:27.409Z,100470.43
2018-03-29T13:29:54.005Z,100470.53
2018-03-29T13:32:20.803Z,100472.81
2018-03-29T13:34:47.332Z,100473.06
2018-03-29T13:37:14.021Z,100475.36
2018-03-29T13:39:40.782Z,100474.68
2018-03-29T13:42:06.998Z,100478.48
2018-03-29T13:44:33.429Z,100481.30
2018-03-29T13:46:59.927Z,100479.70
2018-03-29T13:49:26.167Z,100481.11
2018-03-29T13:51:52.696Z,100483.01
2018-03-29T13:54:18.997Z,100484.27
2018-03-29T13:56:45.188Z,100492.45
2018-03-29T13:59:11.387Z,100490.06
2018-03-29T14:01:37.967Z,100491.63
2018-03-29T14:04:04.137Z,100489.19
2018-03-29T14:06:30.320Z,100490.50
2018-03-29T14:08:56.913Z,100490.74
2018-03-29T14:11:23.156Z,100492.11
2018-03-29T14:13:49.492Z,100493.72
2018-03-29T14:16:15.662Z,100497.08
2018-03-29T14:18:41.908Z,100494.59
2018-03-29T14:21:08.119Z,100486.86
2018-03-29T14:23:34.715Z,100494.13
2018-03-29T14:26:01.037Z,100490.41
2018-03-29T14:28:27.298Z,100493.45
2018-03-29T14:30:53.494Z,100493.70
2018-03-29T14:33:19.931Z,100489.69
2018-03-29T14:35:46.506Z,100494.52
2018-03-29T14:38:13.081Z,100490.78
2018-03-29T14:40:39.362Z,100486.23
2018-03-29T14:43:05.602Z,100492.66
2018-03-29T14:45:32.166Z,100491.63
2018-03-29T14:47:58.372Z,100498.39
2018-03-29T14:50:24.831Z,100497.61
2018-03-29T14:52:51.428Z,100497.06
2018-03-29T14:55:17.635Z,100504.27
2018-03-29T14:57:44.125Z,100506.69
2018-03-29T15:00:10.568Z,100503.33
2018-03-29T15:02:36.786Z,100500.92
2018-03-29T15:05:03.050Z,100499.65
2018-03-29T15:07:29.273Z,100507.15
2018-03-29T15:09:55.473Z,100501.55
2018-03-29T15:12:21.956Z,100501.16
2018-03-29T15:14:48.302Z,100501.68
2018-03-29T15:17:14.488Z,100501.28
2018-03-29T15:19:40.750Z,100503.92
2018-03-29T15:22:06.945Z,100500.04
2018-03-29T15:24:33.214Z,100502.27
2018-03-29T15:26:59.784Z,100502.62
2018-03-29T15:29:26.001Z,100497.80
2018-03-29T15:31:52.226Z,100503.77
2018-03-29T15:34:18.450Z,100507.98
2018-03-29T15:36:44.901Z,100515.11
2018-03-29T15:39:11.120Z,100511.22
2018-03-29T15:41:37.304Z,100511.37
2018-03-29T15:44:03.520Z,100520.70
2018-03-29T15:46:29.703Z,100517.58
2018-03-29T15:48:56.036Z,100513.19
2018-03-29T15:51:22.231Z,100511.66
2018-03-29T15:53:48.460Z,100519.09
2018-03-29T15:56:14.651Z,100525.98
2018-03-29T15:58:40.826Z,100523.58
2018-03-29T16:01:07.323Z,100528.94
2018-03-29T16:03:33.482Z,100530.30
2018-03-29T16:06:06.675Z,100536.91
2018-03-29T16:08:32.888Z,100533.48
2018-03-29T16:10:59.141Z,100536.60
2018-03-29T16:13:25.405Z,100533.14
2018-03-29T16:15:51.595Z,100537.05
2018-03-29T16:18:17.815Z,100539.63
2018-03-29T16:20:44.281Z,100539.77
2018-03-29T16:23:10.824Z,100549.44
2018-03-29T16:25:37.033Z,100550.35
2018-03-29T16:28:03.197Z,100547.20
2018-03-29T16:30:29.450Z,100563.48
2018-03-29T16:32:55.925Z,100564.85
2018-03-29T16:35:22.154Z,100564.41
2018-03-29T16:37:48.998Z,100570.62
2018-03-29T16:40:15.254Z,100579.03
2018-03-29T16:42:41.514Z,100578.67
2018-03-29T16:45:07.796Z,100578.33
2018-03-29T16:47:34.317Z,100581.47
2018-03-29T16:50:00.753Z,100582.39
2018-03-29T16:52:26.962Z,100584.58
2018-03-29T16:54:53.235Z,100593.34
2018-03-29T16:57:19.470Z,100600.82
2018-03-29T16:59:45.644Z,100602.58
2018-03-29T17:02:11.936Z,100604.76
2018-03-29T17:04:38.148Z,100604.77
2018-03-29T17:07:04.665Z,100603.97
2018-03-29T17:09:31.257Z,100610.14
2018-03-29T17:11:57.421Z,100607.51
2018-03-29T17:14:23.724Z,100612.28
2018-03-29T17:16:50.011Z,100609.70
2018-03-29T17:19:16.158Z,100616.74
2018-03-29T17:21:42.366Z,100622.08
2018-03-29T17:24:08.608Z,100619.48
2018-03-29T17:26:34.812Z,100624.79
2018-03-29T17:29:01.014Z,100627.02
2018-03-29T17:31:27.191Z,100635.77
2018-03-29T17:33:53.415Z,100634.42
2018-03-29T17:36:19.911Z,100643.61
2018-03-29T17:38:46.092Z,100645.76
2018-03-29T17:41:12.587Z,100652.32
2018-03-29T17:43:39.529Z,100661.55
2018-03-29T17:46:05.721Z,100663.38
2018-03-29T17:48:31.895Z,100667.76
2018-03-29T17:50:58.514Z,100668.48
2018-03-29T17:53:24.786Z,100671.06
2018-03-29T17:55:51.143Z,100678.83
2018-03-29T17:58:18.143Z,100668.43
2018-03-29T18:00:44.648Z,100671.66
2018-03-29T18:03:10.824Z,100664.70
2018-03-29T18:05:37.028Z,100676.05
2018-03-29T18:08:03.182Z,100682.09
2018-03-29T18:10:29.662Z,100683.32
2018-03-29T18:12:55.877Z,100690.84
2018-03-29T18:15:29.043Z,100693.55
2018-03-29T18:17:55.248Z,100699.00
2018-03-29T18:20:21.460Z,100704.30
2018-03-29T18:22:47.664Z,100706.95
2018-03-29T18:25:13.898Z,100705.17
2018-03-29T18:27:40.055Z,100710.46
2018-03-29T18:30:06.244Z,100708.34
2018-03-29T18:32:33.296Z,100708.83
2018-03-29T18:34:59.461Z,100716.70
2018-03-29T18:37:25.969Z,100715.47
2018-03-29T18:39:52.491Z,100720.28
2018-03-29T18:42:18.675Z,100728.64
2018-03-29T18:44:44.837Z,100731.73
2018-03-29T18:47:11.043Z,100732.69
2018-03-29T18:49:37.215Z,100732.66
2018-03-29T18:52:03.426Z,100736.55
2018-03-29T18:54:29.645Z,100742.61
2018-03-29T18:56:55.901Z,100740.45
2018-03-29T18:59:22.110Z,100738.70
2018-03-29T19:01:48.384Z,100749.20
2018-03-29T19:04:14.559Z,100753.55
2018-03-29T19:06:40.714Z,100760.11
2018-03-29T19:09:06.948Z,100760.59
2018-03-29T19:11:33.462Z,100760.55
2018-03-29T19:13:59.677Z,100763.62
2018-03-29T19:16:26.219Z,100776.34
2018-03-29T19:18:52.511Z,100770.66
2018-03-29T19:21:18.778Z,100776.34
2018-03-29T19:23:45.054Z,100776.78
2018-03-29T19:26:11.217Z,100775.03
2018-03-29T19:28:37.391Z,100772.84
2018-03-29T19:31:03.617Z,100776.42
2018-03-29T19:33:29.783Z,100782.98
2018-03-29T19:35:55.979Z,100779.09
2018-03-29T19:38:22.474Z,100786.09
2018-03-29T19:40:49.016Z,100778.64
2018-03-29T19:43:15.186Z,100786.56
2018-03-29T19:45:41.373Z,100785.21
2018-03-29T19:48:07.561Z,100799.22
2018-03-29T19:50:33.866Z,100797.06
2018-03-29T19:53:00.095Z,100801.08
2018-03-29T19:55:26.280Z,100798.89
2018-03-29T19:57:52.580Z,100800.67
2018-03-29T20:00:18.755Z,100805.05
2018-03-29T20:02:45.271Z,100806.41
2018-03-29T20:05:11.479Z,100807.31
2018-03-29T20:07:37.694Z,100812.16
2018-03-29T20:10:04.164Z,100811.69
2018-03-29T20:12:30.711Z,100813.88
2018-03-29T20:14:56.936Z,100819.20
2018-03-29T20:17:23.118Z,100824.08
2018-03-29T20:19:49.323Z,100828.02
2018-03-29T20:22:15.563Z,100830.65
2018-03-29T20:24:41.771Z,100838.48
2018-03-29T20:27:08.027Z,100837.58
2018-03-29T20:29:34.180Z,100842.39
2018-03-29T20:32:00.369Z,100836.27
2018-03-29T20:34:26.551Z,100842.83
2018-03-29T20:36:52.742Z,100842.36
2018-03-29T20:39:19.026Z,100848.92
2018-03-29T20:41:45.248Z,100851.58
2018-03-29T20:44:11.419Z,100852.49
2018-03-29T20:46:37.591Z,100855.55
2018-03-29T20:49:04.134Z,100849.46
2018-03-29T20:51:30.293Z,100840.30
2018-03-29T20:53:56.491Z,100845.56
2018-03-29T20:56:22.802Z,100850.41
2018-03-29T20:58:48.995Z,100852.16
2018-03-29T21:01:15.218Z,100854.78
2018-03-29T21:03:41.437Z,100861.81
2018-03-29T21:06:07.640Z,100857.00
2018-03-29T21:08:33.815Z,100862.73
2018-03-29T21:11:00.683Z,100868.48
2018-03-29T21:13:26.859Z,100870.27
2018-03-29T21:15:53.028Z,100867.67
2018-03-29T21:18:19.274Z,100863.77
2018-03-29T21:20:45.443Z,100863.73
2018-03-29T21:23:11.647Z,100857.61
2018-03-29T21:25:37.945Z,100850.61
2018-03-29T21:28:04.167Z,100857.61
2018-03-29T21:30:30.337Z,100856.34
2018-03-29T21:32:56.555Z,100864.65
2018-03-29T21:35:22.851Z,100871.17
2018-03-29T21:37:49.058Z,100866.40
2018-03-29T21:40:15.209Z,100869.90
2018-03-29T21:42:41.419Z,100874.30
2018-03-29T21:45:07.590Z,100868.98
2018-03-29T21:47:33.820Z,100872.55
2018-03-29T21:49:59.973Z,100869.93
2018-03-29T21:52:26.182Z,100869.56
2018-03-29T21:54:52.391Z,100873.94
2018-03-29T21:57:18.616Z,100876.59
2018-03-29T21:59:44.843Z,100874.84
2018-03-29T22:02:11.023Z,100869.59
2018-03-29T22:04:37.187Z,100872.25
2018-03-29T22:07:03.399Z,100865.28
2018-03-29T22:09:29.613Z,100864.84
2018-03-29T22:11:55.800Z,100867.03
2018-03-29T22:14:22.048Z,100874.47
2018-03-29T22:16:48.255Z,100873.66
2018-03-29T22:19:14.766Z,100876.66
2018-03-29T22:21:41.243Z,100881.50
2018-03-29T22:24:07.410Z,100880.66
2018-03-29T22:26:33.591Z,100884.16
2018-03-29T22:28:59.785Z,100885.51
2018-03-29T22:31:25.943Z,100895.97
2018-03-29T22:33:52.196Z,100899.03
2018-03-29T22:36:18.685Z,100903.41
2018-03-29T22:38:45.212Z,100896.88
2018-03-29T22:41:11.639Z,100893.81
2018-03-29T22:43:37.804Z,100892.09
2018-03-29T22:46:04.057Z,100890.34
2018-03-29T22:48:30.294Z,100893.03
2018-03-29T22:50:56.466Z,100892.13
2018-03-29T22:53:22.625Z,100889.95
2018-03-29T22:55:48.823Z,100896.03
2018-03-29T22:58:15.008Z,100893.41
2018-03-29T23:00:41.223Z,100894.75
2018-03-29T23:03:07.407Z,100899.53
2018-03-29T23:05:33.978Z,100899.60
2018-03-29T23:08:00.170Z,100902.69
2018-03-29T23:10:26.390Z,100911.41
2018-03-29T23:12:52.914Z,100911.44
2018-03-29T23:15:19.107Z,100911.03
2018-03-29T23:17:45.570Z,100914.87
2018-03-29T23:20:12.139Z,100913.56
2018-03-29T23:22:38.332Z,100910.50
2018-03-29T23:25:04.490Z,100905.31
2018-03-29T23:27:30.710Z,100903.63
2018-03-29T23:29:56.949Z,100903.16
2018-03-29T23:32:23.109Z,100912.81
2018-03-29T23:34:49.743Z,100912.78
2018-03-29T23:37:16.227Z,100915.00
2018-03-29T23:39:42.441Z,100914.19
2018-03-29T23:42:08.665Z,100917.66
2018-03-29T23:44:35.205Z,100908.94
2018-03-29T23:47:01.366Z,100910.28
2018-03-29T23:49:27.558Z,100907.25
2018-03-29T23:51:53.747Z,100909.78
2018-03-29T23:54:19.897Z,100905.91
2018-03-29T23:56:46.085Z,100903.34
2018-03-29T23:59:12.310Z,100909.06
